Kimberly, Oregon
Current Conditions -  °F | °C
As of 6:55 PM on Friday 19 Dec 2014 (Local Time) from KGCD Reporting Station
Clear Clear  
Wind Chill: 31°   Ceiling: Unl
Heat Index: 37°   Visibility: 10mi
Dew Point: 33°   Wind: 8mph
Humidity: 85%   Direction: 90°E
Pressure: 30.01"   Gusts: NA
Location:  44.76°N, 119.65°W
Report Text: KGCD 200255Z AUTO 09007KT 10SM CLR 03/01 A3001 RMK AO2 T00290006
Loading
Personal Weather Stations






























Interactive Weather Map New forecast layout! Learn more

10-Day Weather Forecast

Advertisements
Track Severe Weather on mobile